createdAt,value
2018-06-07T00:02:35.562Z,71.76
2018-06-07T00:05:39.179Z,70.95
2018-06-07T00:08:42.853Z,70.89
2018-06-07T00:11:46.462Z,70.66
2018-06-07T00:14:50.089Z,71.14
2018-06-07T00:17:53.845Z,70.39
2018-06-07T00:20:57.562Z,70.53
2018-06-07T00:24:01.303Z,69.70
2018-06-07T00:27:04.897Z,69.90
2018-06-07T00:30:09.805Z,70.61
2018-06-07T00:33:13.453Z,70.49
2018-06-07T00:36:17.159Z,70.98
2018-06-07T00:39:20.896Z,71.01
2018-06-07T00:42:24.504Z,71.49
2018-06-07T00:45:28.180Z,71.05
2018-06-07T00:48:31.896Z,71.31
2018-06-07T00:51:35.559Z,71.50
2018-06-07T00:54:39.224Z,70.80
2018-06-07T00:57:42.965Z,71.85
2018-06-07T01:00:46.639Z,72.16
2018-06-07T01:03:50.257Z,71.96
2018-06-07T01:06:53.999Z,71.21
2018-06-07T01:09:57.580Z,71.59
2018-06-07T01:13:01.189Z,70.91
2018-06-07T01:16:04.875Z,72.09
2018-06-07T01:19:08.439Z,72.95
2018-06-07T01:22:12.051Z,74.83
2018-06-07T01:25:15.846Z,75.03
2018-06-07T01:28:19.521Z,75.07
2018-06-07T01:31:28.307Z,74.77
2018-06-07T01:34:32.055Z,74.78
2018-06-07T01:37:35.675Z,74.83
2018-06-07T01:40:39.315Z,74.86
2018-06-07T01:43:43.147Z,74.86
2018-06-07T01:46:46.755Z,75.78
2018-06-07T01:49:50.450Z,75.83
2018-06-07T01:52:54.150Z,75.73
2018-06-07T01:55:57.784Z,75.40
2018-06-07T01:59:01.437Z,75.29
2018-06-07T02:02:05.194Z,75.42
2018-06-07T02:05:08.874Z,75.23
2018-06-07T02:08:12.535Z,75.08
2018-06-07T02:11:16.276Z,74.03
2018-06-07T02:14:19.924Z,74.46
2018-06-07T02:17:23.447Z,74.89
2018-06-07T02:20:27.059Z,75.62
2018-06-07T02:23:30.786Z,76.15
2018-06-07T02:26:34.426Z,75.94
2018-06-07T02:29:38.040Z,76.32
2018-06-07T02:32:41.777Z,76.55
2018-06-07T02:35:45.453Z,76.36
2018-06-07T02:38:49.098Z,76.60
2018-06-07T02:41:52.792Z,76.82
2018-06-07T02:44:56.387Z,76.96
2018-06-07T02:48:00.057Z,76.84
2018-06-07T02:51:03.750Z,77.06
2018-06-07T02:54:07.357Z,77.29
2018-06-07T02:57:11.093Z,77.00
2018-06-07T03:00:14.741Z,76.87
2018-06-07T03:03:18.326Z,76.34
2018-06-07T03:06:22.042Z,76.64
2018-06-07T03:09:25.590Z,76.74
2018-06-07T03:12:29.225Z,75.58
2018-06-07T03:15:32.805Z,76.00
2018-06-07T03:18:36.402Z,76.10
2018-06-07T03:21:39.972Z,75.78
2018-06-07T03:24:43.641Z,75.39
2018-06-07T03:27:47.323Z,73.73
2018-06-07T03:30:51.096Z,73.71
2018-06-07T03:33:54.735Z,73.60
2018-06-07T03:36:58.315Z,72.63
2018-06-07T03:40:01.980Z,70.37
2018-06-07T03:43:05.563Z,70.75
2018-06-07T03:46:09.198Z,69.66
2018-06-07T03:49:12.863Z,67.04
2018-06-07T03:52:16.513Z,66.65
2018-06-07T03:55:20.260Z,65.07
2018-06-07T03:58:23.817Z,64.35
2018-06-07T04:01:27.493Z,61.42
2018-06-07T04:04:31.171Z,59.81
2018-06-07T04:07:34.905Z,58.90
2018-06-07T04:10:38.670Z,57.12
2018-06-07T04:13:42.328Z,56.38
2018-06-07T04:16:46.038Z,53.35
2018-06-07T04:19:49.710Z,53.90
2018-06-07T04:22:53.372Z,51.67
2018-06-07T04:25:57.186Z,51.67
2018-06-07T04:29:00.903Z,52.96
2018-06-07T04:32:04.573Z,51.60
2018-06-07T04:35:08.812Z,49.64
2018-06-07T04:38:12.492Z,48.48
2018-06-07T04:41:16.197Z,48.74
2018-06-07T04:44:19.927Z,45.56
2018-06-07T04:47:23.566Z,44.82
2018-06-07T04:50:27.274Z,44.98
2018-06-07T04:53:30.981Z,42.91
2018-06-07T04:56:34.713Z,40.44
2018-06-07T04:59:38.341Z,39.80
2018-06-07T05:02:41.977Z,40.19
2018-06-07T05:05:45.664Z,40.68
2018-06-07T05:08:49.341Z,38.16
2018-06-07T05:11:53.203Z,36.43
2018-06-07T05:14:56.847Z,37.09
2018-06-07T05:18:00.607Z,38.61
2018-06-07T05:21:04.295Z,37.20
2018-06-07T05:24:08.067Z,38.41
2018-06-07T05:27:11.727Z,38.28
2018-06-07T05:30:15.453Z,37.46
2018-06-07T05:33:19.120Z,38.52
2018-06-07T05:36:22.693Z,39.79
2018-06-07T05:39:26.293Z,41.50
2018-06-07T05:42:29.946Z,43.61
2018-06-07T05:45:33.619Z,41.82
2018-06-07T05:48:37.265Z,41.69
2018-06-07T05:51:40.911Z,39.89
2018-06-07T05:54:44.568Z,39.67
2018-06-07T05:57:48.248Z,39.13
2018-06-07T06:00:51.859Z,36.48
2018-06-07T06:03:55.594Z,37.80
2018-06-07T06:06:59.309Z,36.33
2018-06-07T06:10:03.069Z,36.32
2018-06-07T06:13:06.814Z,37.09
2018-06-07T06:16:10.412Z,38.73
2018-06-07T06:19:14.140Z,37.48
2018-06-07T06:22:17.849Z,36.13
2018-06-07T06:25:21.845Z,37.07
2018-06-07T06:28:25.454Z,35.61
2018-06-07T06:31:29.142Z,32.73
2018-06-07T06:34:32.742Z,34.33
2018-06-07T06:38:49.271Z,31.57
2018-06-07T06:41:53.048Z,32.19
2018-06-07T06:44:56.745Z,31.08
2018-06-07T06:48:00.493Z,33.74
2018-06-07T06:51:04.249Z,32.40
2018-06-07T06:54:07.885Z,30.88
2018-06-07T06:57:11.603Z,35.23
2018-06-07T07:00:15.288Z,36.05
2018-06-07T07:03:18.893Z,40.78
2018-06-07T07:06:22.645Z,47.07
2018-06-07T07:09:26.246Z,46.81
2018-06-07T07:12:29.899Z,49.97
2018-06-07T07:15:33.493Z,49.59
2018-06-07T07:18:37.342Z,50.21
2018-06-07T07:21:41.076Z,48.28
2018-06-07T07:24:44.782Z,49.77
2018-06-07T07:27:48.366Z,51.66
2018-06-07T07:30:51.979Z,51.22
2018-06-07T07:33:55.644Z,53.21
2018-06-07T07:36:59.218Z,51.67
2018-06-07T07:40:02.899Z,52.45
2018-06-07T07:43:06.480Z,51.46
2018-06-07T07:46:10.082Z,51.93
2018-06-07T07:49:13.853Z,52.42
2018-06-07T07:52:17.483Z,52.02
2018-06-07T07:55:21.110Z,53.34
2018-06-07T07:58:24.733Z,55.21
2018-06-07T08:01:28.431Z,51.67
2018-06-07T08:04:32.060Z,51.26
2018-06-07T08:07:35.684Z,52.32
2018-06-07T08:10:39.264Z,51.51
2018-06-07T08:13:42.868Z,48.83
2018-06-07T08:16:46.590Z,51.20
2018-06-07T08:19:50.245Z,51.19
2018-06-07T08:22:53.849Z,50.06
2018-06-07T08:25:57.578Z,50.82
2018-06-07T08:29:01.203Z,50.10
2018-06-07T08:32:05.024Z,49.39
2018-06-07T08:35:08.713Z,50.42
2018-06-07T08:38:12.425Z,48.83
2018-06-07T08:41:16.069Z,50.04
2018-06-07T08:44:19.754Z,52.92
2018-06-07T08:47:23.340Z,54.01
2018-06-07T08:50:26.989Z,51.20
2018-06-07T08:53:30.671Z,52.56
2018-06-07T08:56:34.379Z,51.25
2018-06-07T08:59:37.947Z,49.46
2018-06-07T09:02:41.641Z,53.90
2018-06-07T09:05:45.269Z,52.58
2018-06-07T09:08:49.011Z,52.09
2018-06-07T09:11:52.689Z,51.89
2018-06-07T09:14:56.361Z,53.44
2018-06-07T09:18:00.040Z,52.28
2018-06-07T09:21:03.780Z,50.55
2018-06-07T09:24:07.556Z,53.12
2018-06-07T09:27:11.152Z,51.52
2018-06-07T09:30:14.810Z,53.28
2018-06-07T09:33:18.441Z,52.31
2018-06-07T09:36:22.157Z,53.20
2018-06-07T09:39:25.869Z,53.50
2018-06-07T09:42:29.580Z,53.38
2018-06-07T09:45:33.310Z,52.05
2018-06-07T09:48:36.966Z,54.26
2018-06-07T09:51:41.167Z,51.00
2018-06-07T09:54:44.870Z,56.59
2018-06-07T09:57:48.482Z,52.82
2018-06-07T10:00:52.149Z,50.84
2018-06-07T10:03:55.876Z,50.58
2018-06-07T10:06:59.540Z,51.60
2018-06-07T10:10:03.151Z,50.50
2018-06-07T10:13:06.761Z,49.84
2018-06-07T10:16:10.447Z,48.51
2018-06-07T10:19:14.088Z,50.17
2018-06-07T10:22:17.739Z,51.18
2018-06-07T10:25:21.477Z,46.88
2018-06-07T10:28:25.090Z,47.57
2018-06-07T10:31:28.720Z,47.16
2018-06-07T10:34:32.357Z,47.87
2018-06-07T10:37:35.945Z,45.77
2018-06-07T10:40:39.634Z,47.13
2018-06-07T10:43:43.230Z,46.99
2018-06-07T10:46:46.825Z,48.79
2018-06-07T10:49:50.456Z,48.44
2018-06-07T10:52:54.070Z,50.02
2018-06-07T10:55:57.876Z,45.65
2018-06-07T10:59:01.653Z,48.67
2018-06-07T11:02:05.507Z,45.38
2018-06-07T11:05:09.243Z,46.31
2018-06-07T11:08:12.940Z,47.03
2018-06-07T11:11:16.616Z,50.58
2018-06-07T11:14:20.231Z,45.64
2018-06-07T11:17:23.856Z,46.23
2018-06-07T11:20:27.887Z,46.63
2018-06-07T11:23:32.706Z,46.89
2018-06-07T11:26:36.371Z,47.20
2018-06-07T11:29:40.034Z,45.59
2018-06-07T11:32:43.666Z,44.45
2018-06-07T11:35:47.291Z,45.04
2018-06-07T11:38:51.013Z,43.81
2018-06-07T11:41:54.743Z,46.27
2018-06-07T11:44:58.413Z,45.26
2018-06-07T11:48:02.157Z,44.21
2018-06-07T11:51:06.418Z,44.05
2018-06-07T11:54:10.950Z,42.90
2018-06-07T11:57:14.541Z,44.51
2018-06-07T12:00:18.157Z,44.45
2018-06-07T12:03:21.779Z,46.84
2018-06-07T12:06:25.412Z,45.34
2018-06-07T12:09:29.889Z,44.83
2018-06-07T12:12:33.744Z,43.36
2018-06-07T12:15:37.437Z,45.89
2018-06-07T12:18:41.113Z,44.82
2018-06-07T12:21:44.797Z,43.28
2018-06-07T12:24:48.411Z,44.29
2018-06-07T12:27:52.021Z,44.98
2018-06-07T12:30:55.680Z,45.45
2018-06-07T12:33:59.464Z,46.40
2018-06-07T12:37:03.201Z,45.27
2018-06-07T12:40:07.036Z,43.68
2018-06-07T12:43:10.653Z,42.27
2018-06-07T12:46:14.324Z,44.69
2018-06-07T12:49:18.037Z,44.17
2018-06-07T12:52:21.718Z,43.37
2018-06-07T12:55:25.429Z,41.44
2018-06-07T12:58:29.119Z,43.08
2018-06-07T13:01:34.609Z,45.19
2018-06-07T13:04:38.253Z,43.27
2018-06-07T13:07:42.044Z,41.70
2018-06-07T13:10:45.878Z,40.83
2018-06-07T13:13:49.512Z,43.23
2018-06-07T13:16:53.211Z,42.05
2018-06-07T13:19:57.046Z,42.11
2018-06-07T13:23:11.549Z,42.98
2018-06-07T13:26:15.169Z,43.46
2018-06-07T13:29:18.803Z,43.82
2018-06-07T13:32:50.884Z,43.32
2018-06-07T13:35:54.853Z,42.98
2018-06-07T13:38:58.526Z,39.53
2018-06-07T13:42:02.334Z,40.58
2018-06-07T13:45:05.953Z,40.45
2018-06-07T13:48:09.749Z,43.41
2018-06-07T13:51:13.386Z,40.96
2018-06-07T13:54:17.045Z,40.79
2018-06-07T13:57:20.817Z,40.79
2018-06-07T14:00:24.584Z,39.76
2018-06-07T14:03:28.306Z,40.17
2018-06-07T14:06:31.989Z,39.46
2018-06-07T14:09:35.820Z,39.76
2018-06-07T14:12:39.574Z,39.54
2018-06-07T14:15:43.237Z,40.10
2018-06-07T14:18:47.141Z,39.50
2018-06-07T14:21:50.789Z,40.92
2018-06-07T14:24:54.553Z,38.28
2018-06-07T14:27:58.275Z,37.74
2018-06-07T14:31:01.974Z,36.08
2018-06-07T14:34:05.784Z,35.90
2018-06-07T14:37:09.523Z,42.24
2018-06-07T14:40:19.950Z,39.60
2018-06-07T14:43:23.726Z,37.29
2018-06-07T14:46:27.564Z,36.79
2018-06-07T14:49:31.319Z,39.09
2018-06-07T14:52:34.919Z,39.57
2018-06-07T14:58:57.174Z,39.60
2018-06-07T15:02:00.830Z,38.65
2018-06-07T15:05:04.504Z,38.96
2018-06-07T15:08:08.206Z,39.15
2018-06-07T15:11:11.804Z,38.93
2018-06-07T15:14:15.535Z,39.52
2018-06-07T15:17:19.212Z,39.67
2018-06-07T15:20:22.809Z,38.57
2018-06-07T15:23:26.468Z,38.43
2018-06-07T15:26:30.166Z,40.38
2018-06-07T15:29:33.888Z,42.82
2018-06-07T15:32:37.481Z,42.25
2018-06-07T15:35:41.251Z,43.52
2018-06-07T15:38:45.003Z,39.87
2018-06-07T15:41:48.651Z,39.26
2018-06-07T15:44:52.303Z,39.64
2018-06-07T15:47:55.971Z,39.20
2018-06-07T15:50:59.604Z,38.14
2018-06-07T15:54:03.299Z,38.87
2018-06-07T15:57:06.870Z,40.52
2018-06-07T16:00:10.520Z,45.91
2018-06-07T16:03:14.161Z,38.55
2018-06-07T16:06:17.792Z,38.71
2018-06-07T16:09:21.548Z,37.17
2018-06-07T16:12:25.336Z,37.51
2018-06-07T16:15:29.213Z,38.12
2018-06-07T16:18:33.011Z,39.14
2018-06-07T16:21:36.675Z,38.10
2018-06-07T16:24:40.352Z,39.03
2018-06-07T16:27:44.049Z,39.75
2018-06-07T16:30:47.776Z,40.50
2018-06-07T16:33:51.555Z,38.83
2018-06-07T16:36:55.236Z,41.10
2018-06-07T16:39:58.947Z,38.48
2018-06-07T16:43:02.659Z,37.83
2018-06-07T16:46:06.331Z,38.80
2018-06-07T16:49:09.960Z,37.78
2018-06-07T16:52:13.573Z,38.99
2018-06-07T16:55:17.353Z,34.06
2018-06-07T16:58:21.001Z,36.90
2018-06-07T17:01:24.759Z,36.36
2018-06-07T17:04:28.466Z,35.86
2018-06-07T17:07:32.142Z,33.10
2018-06-07T17:10:35.859Z,32.51
2018-06-07T17:13:39.543Z,30.80
2018-06-07T17:16:43.221Z,35.80
2018-06-07T17:19:46.830Z,38.45
2018-06-07T17:22:50.935Z,39.94
2018-06-07T17:25:54.544Z,40.01
2018-06-07T17:28:58.206Z,42.40
2018-06-07T17:32:01.849Z,41.13
2018-06-07T17:35:05.550Z,41.58
2018-06-07T17:38:09.239Z,41.79
2018-06-07T17:41:13.096Z,40.63
2018-06-07T17:44:16.755Z,41.13
2018-06-07T17:47:20.341Z,40.16
2018-06-07T17:50:23.975Z,40.21
2018-06-07T17:53:27.865Z,41.11
2018-06-07T17:56:34.617Z,40.85
2018-06-07T17:59:38.285Z,42.28
2018-06-07T18:02:49.126Z,42.23
2018-06-07T18:05:52.967Z,42.49
2018-06-07T18:08:56.709Z,44.45
2018-06-07T18:12:02.362Z,44.45
2018-06-07T18:15:07.009Z,43.47
2018-06-07T18:18:10.652Z,45.38
2018-06-07T18:21:14.402Z,47.01
2018-06-07T18:24:18.047Z,46.21
2018-06-07T18:27:22.321Z,45.94
2018-06-07T18:30:26.136Z,46.53
2018-06-07T18:33:29.796Z,46.91
2018-06-07T18:36:33.601Z,47.10
2018-06-07T18:39:37.272Z,47.36
2018-06-07T18:42:40.976Z,48.27
2018-06-07T18:45:45.907Z,49.18
2018-06-07T18:48:49.669Z,48.19
2018-06-07T18:51:54.563Z,48.89
2018-06-07T18:54:58.233Z,50.06
2018-06-07T18:58:01.970Z,50.06
2018-06-07T19:01:05.775Z,50.53
2018-06-07T19:04:09.550Z,51.31
2018-06-07T19:07:18.377Z,52.88
2018-06-07T19:10:22.036Z,51.22
2018-06-07T19:13:31.123Z,50.42
2018-06-07T19:16:34.809Z,52.89
2018-06-07T19:19:43.550Z,52.53
2018-06-07T19:22:47.212Z,52.70
2018-06-07T19:25:56.252Z,53.20
2018-06-07T19:29:00.436Z,52.88
2018-06-07T19:32:09.621Z,52.37
2018-06-07T19:35:14.940Z,52.62
2018-06-07T19:38:18.669Z,52.36
2018-06-07T19:41:27.595Z,52.32
2018-06-07T19:44:31.281Z,52.62
2018-06-07T19:47:34.993Z,51.87
2018-06-07T19:50:38.683Z,52.04
2018-06-07T19:53:42.438Z,52.70
2018-06-07T19:56:46.219Z,52.15
2018-06-07T19:59:49.877Z,51.72
2018-06-07T20:02:53.748Z,50.55
2018-06-07T20:05:57.342Z,50.81
2018-06-07T20:09:01.062Z,50.78
2018-06-07T20:12:04.846Z,51.54
2018-06-07T20:15:08.654Z,52.02
2018-06-07T20:18:12.311Z,51.39
2018-06-07T20:21:16.011Z,51.63
2018-06-07T20:24:19.796Z,52.68
2018-06-07T20:27:23.537Z,52.50
2018-06-07T20:30:27.236Z,52.31
2018-06-07T20:33:30.898Z,52.58
2018-06-07T20:36:34.682Z,53.11
2018-06-07T20:39:38.513Z,53.06
2018-06-07T20:42:42.091Z,52.02
2018-06-07T20:45:45.876Z,51.29
2018-06-07T20:48:49.542Z,51.42
2018-06-07T20:51:54.222Z,50.92
2018-06-07T20:54:57.883Z,52.24
2018-06-07T20:58:01.579Z,55.09
2018-06-07T21:01:05.212Z,55.21
2018-06-07T21:04:08.967Z,56.20
2018-06-07T21:07:15.458Z,56.29
2018-06-07T21:10:19.331Z,57.03
2018-06-07T21:13:22.914Z,58.14
2018-06-07T21:16:26.607Z,57.94
2018-06-07T21:19:30.241Z,58.40
2018-06-07T21:22:33.953Z,58.95
2018-06-07T21:25:39.210Z,59.40
2018-06-07T21:28:42.893Z,58.85
2018-06-07T21:31:46.648Z,59.53
2018-06-07T21:34:50.308Z,60.62
2018-06-07T21:37:53.929Z,60.89
2018-06-07T21:40:57.607Z,62.28
2018-06-07T21:44:01.267Z,62.80
2018-06-07T21:47:05.042Z,62.59
2018-06-07T21:50:08.745Z,63.29
2018-06-07T21:53:12.367Z,63.81
2018-06-07T21:56:16.039Z,64.05
2018-06-07T21:59:19.664Z,65.19
2018-06-07T22:02:23.337Z,65.24
2018-06-07T22:05:27.083Z,65.87
2018-06-07T22:08:30.684Z,66.56
2018-06-07T22:11:34.312Z,66.93
2018-06-07T22:14:37.868Z,67.45
2018-06-07T22:17:41.550Z,67.73
2018-06-07T22:20:45.285Z,68.05
2018-06-07T22:23:48.922Z,68.07
2018-06-07T22:30:00.833Z,67.95
2018-06-07T22:33:04.437Z,67.99
2018-06-07T22:36:08.097Z,68.09
2018-06-07T22:39:11.767Z,68.40
2018-06-07T22:42:15.412Z,68.28
2018-06-07T22:45:19.022Z,68.50
2018-06-07T22:48:22.663Z,68.25
2018-06-07T22:51:26.285Z,67.94
2018-06-07T22:54:29.868Z,68.49
2018-06-07T22:57:33.663Z,69.19
2018-06-07T23:00:37.285Z,69.62
2018-06-07T23:03:41.002Z,70.43
2018-06-07T23:06:44.572Z,70.47
2018-06-07T23:09:48.317Z,70.88
2018-06-07T23:12:52.027Z,70.86
2018-06-07T23:15:56.633Z,70.74
2018-06-07T23:19:00.367Z,71.05
2018-06-07T23:22:04.034Z,71.77
2018-06-07T23:25:07.672Z,72.11
2018-06-07T23:28:11.228Z,72.58
2018-06-07T23:31:14.830Z,72.72
2018-06-07T23:34:18.554Z,73.06
2018-06-07T23:37:22.144Z,72.78
2018-06-07T23:40:25.819Z,72.88
2018-06-07T23:43:29.377Z,72.85
2018-06-07T23:46:32.952Z,72.82
2018-06-07T23:49:36.539Z,72.74
2018-06-07T23:52:40.200Z,72.50
2018-06-07T23:55:43.773Z,71.74
2018-06-07T23:58:47.399Z,72.00
